Top 50   3.5 MHz   UTC   Spotter   Comment  
SO90PZK   3708.1   18 Feb 16:11   SP3PWL   90 Years of PZK Award
R8OM   3509.2   18 Feb 16:10   RW6BX   cq
SN95IARU   3728.0   18 Feb 16:03   SQ5TDZ   cq cq
SQ8HNB/P   3717.0   18 Feb 16:01   RT1S   tnx qso
HF95IARU   3717.0   18 Feb 15:58   UR5IRM   TNX QSO! 73!
HF95IARU   3719.0   18 Feb 15:54   HA2JP   AWARD
HF95IARU   3719.0   18 Feb 15:51   SP7FPU  
R2020LS   3514.0   18 Feb 15:50   UR5IRM   TNX QSO! 73!
HF95IARU   3717.0   18 Feb 15:49   SP7FPU  
HF90PZK   3550.0   18 Feb 15:48   UR5IRM   TNX QSO! 73!
SP5ZIP   3534.0   18 Feb 15:47   PA2EVR   cqcq
SQ8HNB/P   3717.0   18 Feb 15:45   SP2YKS   pga up01 cq
UA3AFO   3515.3   18 Feb 15:44   PA2EVR  
IQ1QQ/0ARPI   3573.0   18 Feb 15:42   I0OSI   ARPI CARNIVAL FT8 3pt
VK6LW   3507.2   18 Feb 15:36   R3EC   Tnx QSO Kevin
HF90PZK   3550.0   18 Feb 15:33   HA6VH  
IQ1QQ/P   3710.0   18 Feb 15:29   ON3EI   TNX Salvatore 73/88
VK6LW   3507.2   18 Feb 15:28   UA9BA   Kev 1 call Qso w/80Wtts hr
VK6LW   3615.0   18 Feb 15:27   UA9BA   Kev 1 call QSO w/80 Watts here!
HF90PZK   3550.0   18 Feb 15:26   SQ7BFC   90 YEARS OF PZK From 1 January to 31 December 2020
G3YQA   3573.0   18 Feb 15:22   M0LHS  
IQ1QQ/9   3710.0   18 Feb 15:21   IT9RJQ   Gold Trophy Arpi
VK6LW   3507.0   18 Feb 15:21   R8OM   FB SIG GL KEVIN
SP5ZIP   3710.0   18 Feb 14:52   SQ8JCB   SPFF-0008 ND03
RT1I   3573.0   18 Feb 14:49   RT1I   FT8
R240S   3573.0   18 Feb 14:23   RT1I   FT8
TI2CC   3796.9   18 Feb 14:11   IU5CJP   58
W7OK   3569.0   18 Feb 14:02   LY2BAW   +6dB, UFB signal at day time
DS3EXX   3522.2   18 Feb 13:48   W3LPL   Heard in NV
XV1X   3503.0   18 Feb 13:28   K5TQ   QSX 3504.00
VK9NK   3569.0   18 Feb 13:26   I1PIG   GO HOME IDIOT
XV1X   3503.0   18 Feb 13:26   HL1VAU   CW CQ
VK9NK   3569.0   18 Feb 13:23   JA0BUG   CB OPERATOR
XV1X   3503.0   18 Feb 13:23   W3LPL   Heard in NV
XV1X   3503.0   18 Feb 13:23   3W1T  
VK9NK   3569.0   18 Feb 13:21   NA0QSO   RIDICULOUS EXP
VL6LW   3507.2   18 Feb 13:08   KB0EO   CQ DX - loud today
VK9NK   3569.0   18 Feb 13:05   JH3KCW   FT8 F/H TNX QSO
VK6LW   3507.2   18 Feb 13:05   K4NA   CQ
V31HE   3519.5   18 Feb 13:03   W3LPL   Heard in OH and WI
VK6LW   3507.2   18 Feb 13:00   W3LPL   Heard in CO
XV1X   3504.0   18 Feb 12:57   W3LPL   Heard in NV
NV9L   3547.0   18 Feb 12:55   DS5TOS   TNX FT8 QSO :) SIMPLEX 3547.0
XV1X   3504.0   18 Feb 12:54   3W1T   QSX 3505.00
JR6EZE   3569.0   18 Feb 12:54   LY2BAW   pls look PSKReporter LY2BAW 80
AL7TC   3547.0   18 Feb 12:45   DS5TOS   TNX FT8 QSO :) SIMPLEX 3547.0
KU7Z   3547.0   18 Feb 12:40   DS5TOS   TNX FT8 QSO :) SIMPLEX 3547.0
W0DD   3547.0   18 Feb 12:27   DS5TOS   TNX FT8 :: SIMPLEX 3547.0
VK9NK   3569.2   18 Feb 12:04   JR4OZR   FT8 CALL HIM ABOVE 1000Hz
JA7BXS   3503.9   18 Feb 11:57   N1LN   CQ DX